Time;durP1;ratioP1;P1;durP2;ratioP2;P2;SDS_P1;SDS_P2;PMS_P1;PMS_P2;Temp;Humidity;BMP_temperature;BMP_pressure;BME280_temperature;BME280_humidity;BME280_pressure;Samples;Min_cycle;Max_cycle;Signal;HPM_P1;HPM_P2
2023/10/04 00:01:16;;;;;;;;;;;;;;;14.28;70.74;100792.77;106275;1258;125130;-82
2023/10/04 00:03:46;;;;;;;;;;;;;;;14.19;70.74;100797.09;106054;1264;66102;-81
2023/10/04 00:06:13;;;;;;;;;;;;;;;14.10;70.75;100801.22;106208;1258;125171;-81
2023/10/04 00:08:40;;;;;;;;;;;;;;;14.03;70.98;100801.48;106107;1261;61264;-80
2023/10/04 00:11:07;;;;;;;;;;;;;;;13.95;71.02;100807.94;106242;1264;126201;-79
2023/10/04 00:13:33;;;;;;;;;;;;;;;13.90;71.19;100808.75;106271;1261;74678;-82
2023/10/04 00:16:01;;;;;;;;;;;;;;;13.84;71.28;100810.96;106335;1260;65810;-81
2023/10/04 00:18:27;;;;;;;;;;;;;;;13.79;71.44;100817.96;105946;1259;125499;-81
2023/10/04 00:20:55;;;;;;;;;;;;;;;13.75;71.43;100823.91;106084;1258;59542;-81
2023/10/04 00:23:22;;;;;;;;;;;;;;;13.71;71.61;100830.90;106122;1264;126242;-81
2023/10/04 00:25:48;;;;;;;;;;;;;;;13.66;71.66;100845.83;106174;1265;74095;-78
2023/10/04 00:28:15;;;;;;;;;;;;;;;13.61;71.81;100852.29;106247;1261;66568;-78
2023/10/04 00:30:43;;;;;;;;;;;;;;;13.58;72.01;100847.48;106164;1259;125477;-78
2023/10/04 00:33:09;;;;;;;;;;;;;;;13.54;72.10;100855.90;106176;1258;61238;-78
2023/10/04 00:35:40;;;;;;;;;;;;;;;13.52;72.17;100871.20;106222;1261;125914;-82
2023/10/04 00:38:09;;;;;;;;;;;;;;;13.49;72.25;100880.84;106186;1260;74754;-81
2023/10/04 00:40:38;;;;;;;;;;;;;;;13.48;72.43;100896.17;106466;1258;66123;-81
2023/10/04 00:43:13;;;;;;;;;;;;;;;13.53;72.72;100902.59;106293;1261;124262;-84
2023/10/04 00:45:42;;;;;;;;;;;;;;;13.63;72.85;100906.45;106373;1260;61378;-84
2023/10/04 00:48:13;;;;;;;;;;;;;;;13.74;72.91;100909.60;106297;1261;124405;-81
2023/10/04 00:50:39;;;;;;;;;;;;;;;13.84;72.79;100916.27;106499;1264;74685;-84
2023/10/04 00:53:10;;;;;;;;;;;;;;;13.91;72.96;100909.50;106187;1259;124455;-84
2023/10/04 00:55:39;;;;;;;;;;;;;;;13.95;72.97;100907.80;106599;1259;73781;-82
2023/10/04 00:58:07;;;;;;;;;;;;;;;13.98;73.21;100905.36;106587;1260;59583;-82
2023/10/04 01:00:34;;;;;;;;;;;;;;;13.99;73.26;100906.61;106095;1259;125519;-82
2023/10/04 01:03:01;;;;;;;;;;;;;;;13.98;73.37;100906.24;106249;1260;74484;-84
2023/10/04 01:05:28;;;;;;;;;;;;;;;13.96;73.50;100906.91;106337;1259;125905;-82
2023/10/04 01:07:56;;;;;;;;;;;;;;;13.93;73.46;100907.73;106331;1261;72264;-82
2023/10/04 01:10:32;;;;;;;;;;;;;;;13.86;73.35;100905.01;106359;1261;61322;-82
2023/10/04 01:13:00;;;;;;;;;;;;;;;13.76;73.25;100909.11;106293;1260;124912;-82
2023/10/04 01:18:00;;;;;;;;;;;;;;;13.54;73.21;100912.66;106220;1260;125155;-82
2023/10/04 01:20:28;;;;;;;;;;;;;;;13.45;73.32;100921.15;106405;1260;71652;-81
2023/10/04 01:22:55;;;;;;;;;;;;;;;13.37;73.58;100926.66;106313;1258;61223;-82
2023/10/04 01:25:21;;;;;;;;;;;;;;;13.30;73.62;100937.45;106313;1264;124796;-81
2023/10/04 01:27:48;;;;;;;;;;;;;;;13.24;73.75;100939.45;106308;1260;61215;-82
2023/10/04 01:30:16;;;;;;;;;;;;;;;13.19;73.90;100941.14;106195;1261;125356;-82
2023/10/04 01:32:43;;;;;;;;;;;;;;;13.14;73.94;100938.59;106314;1261;72691;-82
2023/10/04 01:35:11;;;;;;;;;;;;;;;13.10;74.00;100937.98;106316;1259;126347;-82
2023/10/04 01:37:40;;;;;;;;;;;;;;;13.04;74.15;100942.63;106488;1260;61364;-82
2023/10/04 01:40:12;;;;;;;;;;;;;;;12.99;74.25;100945.89;107812;1259;74662;-82
2023/10/04 01:42:40;;;;;;;;;;;;;;;12.97;74.40;100947.28;106093;1260;125325;-83
2023/10/04 01:45:10;;;;;;;;;;;;;;;12.96;74.49;100947.60;106246;1263;70444;-82
2023/10/04 01:47:38;;;;;;;;;;;;;;;12.95;74.61;100955.50;106179;1258;125472;-82
2023/10/04 01:50:06;;;;;;;;;;;;;;;12.93;74.84;100956.71;106363;1260;61186;-82
2023/10/04 01:52:33;;;;;;;;;;;;;;;12.94;74.90;100955.85;106355;1259;74677;-82
2023/10/04 01:55:00;;;;;;;;;;;;;;;12.92;74.82;100949.12;106305;1258;125047;-83
2023/10/04 01:57:27;;;;;;;;;;;;;;;12.90;74.93;100950.83;106352;1259;73493;-82
2023/10/04 01:59:54;;;;;;;;;;;;;;;12.88;75.06;100951.34;106260;1263;125158;-82
2023/10/04 02:02:21;;;;;;;;;;;;;;;12.85;75.12;100947.05;106560;1262;61466;-82
2023/10/04 02:04:52;;;;;;;;;;;;;;;12.84;75.19;100949.66;106322;1260;74669;-82
2023/10/04 02:07:22;;;;;;;;;;;;;;;12.81;75.25;100946.80;106243;1259;124055;-82
2023/10/04 02:09:49;;;;;;;;;;;;;;;12.78;75.27;100957.30;106345;1259;71429;-82
2023/10/04 02:12:18;;;;;;;;;;;;;;;12.75;75.42;100963.05;106242;1263;124454;-83
2023/10/04 02:14:48;;;;;;;;;;;;;;;12.76;75.64;100960.61;106214;1264;61329;-82
2023/10/04 02:17:17;;;;;;;;;;;;;;;12.74;75.58;100963.40;106108;1259;124389;-82
2023/10/04 02:19:43;;;;;;;;;;;;;;;12.74;75.69;100968.67;106408;1259;64702;-83
2023/10/04 02:22:10;;;;;;;;;;;;;;;12.76;75.87;100973.83;106536;1259;71379;-82
2023/10/04 02:24:40;;;;;;;;;;;;;;;12.77;75.89;100979.82;106064;1265;125643;-82
2023/10/04 02:27:07;;;;;;;;;;;;;;;12.78;75.99;100984.77;106468;1259;61237;-82
2023/10/04 02:29:34;;;;;;;;;;;;;;;12.84;76.18;100987.17;106352;1260;125095;-82
2023/10/04 02:32:08;;;;;;;;;;;;;;;12.89;76.00;100988.33;106419;1262;64917;-82
2023/10/04 02:34:35;;;;;;;;;;;;;;;12.88;75.86;100995.01;107114;1260;71407;-82
2023/10/04 02:37:06;;;;;;;;;;;;;;;12.86;75.79;100993.22;106261;1259;125305;-82
2023/10/04 02:39:33;;;;;;;;;;;;;;;12.86;75.84;100997.09;106380;1259;61259;-82
2023/10/04 02:42:00;;;;;;;;;;;;;;;12.85;75.81;100999.52;106180;1259;125166;-82
2023/10/04 02:44:27;;;;;;;;;;;;;;;12.85;75.79;101004.45;106410;1260;64354;-82
2023/10/04 02:46:53;;;;;;;;;;;;;;;12.84;75.65;101006.91;106386;1261;72511;-83
2023/10/04 02:49:20;;;;;;;;;;;;;;;12.82;75.83;101016.03;106218;1261;125656;-84
2023/10/04 02:51:47;;;;;;;;;;;;;;;12.84;75.98;101016.41;106382;1258;61173;-83
2023/10/04 02:54:16;;;;;;;;;;;;;;;12.85;76.01;101017.85;106390;1260;125418;-83
2023/10/04 02:56:45;;;;;;;;;;;;;;;12.91;76.18;101021.13;106262;1262;66970;-83
2023/10/04 02:59:12;;;;;;;;;;;;;;;12.97;76.08;101028.13;106208;1259;125344;-81
2023/10/04 03:01:41;;;;;;;;;;;;;;;13.05;76.08;101032.49;106365;1259;61352;-82
2023/10/04 03:04:09;;;;;;;;;;;;;;;13.12;76.10;101037.39;106370;1259;61216;-82
2023/10/04 03:06:36;;;;;;;;;;;;;;;13.19;76.04;101036.13;106247;1260;126457;-83
2023/10/04 03:09:05;;;;;;;;;;;;;;;13.27;75.92;101035.39;106340;1260;61312;-82
2023/10/04 03:11:32;;;;;;;;;;;;;;;13.35;75.77;101039.77;106208;1259;125230;-83
2023/10/04 03:13:59;;;;;;;;;;;;;;;13.42;75.86;101043.80;106318;1259;59571;-81
2023/10/04 03:16:25;;;;;;;;;;;;;;;13.49;75.70;101044.61;106410;1262;61253;-82
2023/10/04 03:18:52;;;;;;;;;;;;;;;13.56;75.58;101040.70;106242;1259;125699;-82
2023/10/04 03:21:20;;;;;;;;;;;;;;;13.63;75.52;101045.58;106235;1264;65008;-82
2023/10/04 03:23:47;;;;;;;;;;;;;;;13.65;75.29;101046.85;106164;1259;125510;-83
2023/10/04 03:26:15;;;;;;;;;;;;;;;13.66;75.14;101054.27;106347;1258;61164;-82
2023/10/04 03:28:41;;;;;;;;;;;;;;;13.69;75.16;101058.19;106384;1258;60006;-83
2023/10/04 03:31:12;;;;;;;;;;;;;;;13.69;74.96;101058.20;106343;1259;124931;-81
2023/10/04 03:33:43;;;;;;;;;;;;;;;13.65;74.77;101054.09;107261;1258;65174;-82
2023/10/04 03:36:14;;;;;;;;;;;;;;;13.58;74.65;101053.77;106343;1263;124775;-82
2023/10/04 03:38:41;;;;;;;;;;;;;;;13.49;74.50;101059.79;106231;1259;61300;-82
2023/10/04 03:41:08;;;;;;;;;;;;;;;13.40;74.55;101058.75;106136;1259;124462;-82
2023/10/04 03:43:35;;;;;;;;;;;;;;;13.32;74.60;101061.94;106423;1259;74710;-82
2023/10/04 03:46:16;;;;;;;;;;;;;;;13.25;74.69;101060.39;106397;1259;66906;-82
2023/10/04 03:48:44;;;;;;;;;;;;;;;13.17;74.68;101064.81;106207;1259;124525;-82
2023/10/04 03:51:10;;;;;;;;;;;;;;;13.10;74.73;101073.83;106243;1258;61327;-82
2023/10/04 03:53:37;;;;;;;;;;;;;;;13.04;74.71;101079.86;106371;1258;125262;-83
2023/10/04 03:56:04;;;;;;;;;;;;;;;12.96;74.95;101077.43;106273;1264;73446;-83
2023/10/04 03:58:32;;;;;;;;;;;;;;;12.93;75.07;101079.66;106322;1260;64891;-83
2023/10/04 04:00:58;;;;;;;;;;;;;;;12.92;75.12;101075.04;106332;1264;124249;-81
2023/10/04 04:03:25;;;;;;;;;;;;;;;12.91;75.25;101078.36;106394;1259;61262;-80
2023/10/04 04:05:54;;;;;;;;;;;;;;;12.91;75.52;101081.19;106018;1259;124449;-80
2023/10/04 04:08:21;;;;;;;;;;;;;;;12.93;75.52;101083.36;106428;1262;73513;-80
2023/10/04 04:10:49;;;;;;;;;;;;;;;12.94;75.51;101084.77;106400;1259;65213;-82
2023/10/04 04:13:16;;;;;;;;;;;;;;;12.95;75.62;101082.86;106242;1259;126014;-80
2023/10/04 04:15:42;;;;;;;;;;;;;;;12.93;75.52;101080.02;106155;1259;61281;-79
2023/10/04 04:18:13;;;;;;;;;;;;;;;12.89;75.43;101089.42;105564;1264;125202;-79
2023/10/04 04:20:43;;;;;;;;;;;;;;;12.86;75.57;101089.02;105545;1259;73421;-79
2023/10/04 04:23:10;;;;;;;;;;;;;;;12.90;75.77;101093.15;105523;1258;125751;-78
2023/10/04 04:25:38;;;;;;;;;;;;;;;12.98;75.90;101094.20;105668;1264;73273;-79
2023/10/04 04:28:07;;;;;;;;;;;;;;;13.02;75.77;101097.63;105663;1261;61138;-81
2023/10/04 04:30:35;;;;;;;;;;;;;;;13.02;75.69;101101.32;105690;1263;125263;-84
2023/10/04 04:33:07;;;;;;;;;;;;;;;12.99;75.56;101104.09;106313;1259;75158;-87
2023/10/04 04:38:16;;;;;;;;;;;;;;;13.00;75.68;101114.14;106267;1261;71366;-87
2023/10/04 04:41:04;;;;;;;;;;;;;;;12.98;75.61;101116.76;106288;1259;61306;-91
2023/10/04 04:43:38;;;;;;;;;;;;;;;13.00;75.90;101113.78;106529;1259;61407;-93
2023/10/04 04:46:13;;;;;;;;;;;;;;;13.07;75.93;101109.55;106306;1260;72903;-94
2023/10/04 04:48:40;;;;;;;;;;;;;;;13.12;75.76;101101.89;106045;1265;125083;-93
2023/10/04 04:51:14;;;;;;;;;;;;;;;13.15;75.60;101109.00;106133;1259;72692;-86
2023/10/04 04:53:42;;;;;;;;;;;;;;;13.21;75.57;101117.58;106152;1258;125255;-85
2023/10/04 04:56:15;;;;;;;;;;;;;;;13.28;75.58;101115.24;106265;1264;60189;-85
2023/10/04 04:58:44;;;;;;;;;;;;;;;13.34;75.54;101117.69;106171;1259;74729;-84
2023/10/04 05:01:11;;;;;;;;;;;;;;;13.39;75.41;101115.16;106363;1259;125093;-82
2023/10/04 05:03:41;;;;;;;;;;;;;;;13.43;75.27;101120.69;105791;1259;72711;-85
2023/10/04 05:06:13;;;;;;;;;;;;;;;13.45;75.13;101126.17;106325;1260;125203;-84
2023/10/04 05:08:40;;;;;;;;;;;;;;;13.44;75.01;101124.73;106841;1260;59709;-84
2023/10/04 05:11:07;;;;;;;;;;;;;;;13.44;74.96;101122.63;106301;1263;125269;-83
2023/10/04 05:13:34;;;;;;;;;;;;;;;13.48;74.94;101124.83;106374;1263;65995;-85
2023/10/04 05:16:01;;;;;;;;;;;;;;;13.53;74.94;101131.09;106141;1259;72743;-84
2023/10/04 05:18:27;;;;;;;;;;;;;;;13.62;74.96;101141.48;106253;1260;125087;-84
2023/10/04 05:20:54;;;;;;;;;;;;;;;13.71;75.02;101145.70;106512;1261;61176;-84
2023/10/04 05:23:24;;;;;;;;;;;;;;;13.79;74.84;101148.50;106380;1263;125252;-84
2023/10/04 05:25:51;;;;;;;;;;;;;;;13.88;74.68;101146.72;105875;1259;65006;-84
2023/10/04 05:28:18;;;;;;;;;;;;;;;13.92;74.50;101147.33;106585;1258;71411;-84
2023/10/04 05:30:45;;;;;;;;;;;;;;;13.96;74.34;101141.21;106569;1259;124266;-84
2023/10/04 05:33:13;;;;;;;;;;;;;;;13.99;74.29;101138.98;106711;1260;61355;-84
2023/10/04 05:35:43;;;;;;;;;;;;;;;14.04;74.28;101142.42;106667;1259;124601;-85
2023/10/04 05:38:11;;;;;;;;;;;;;;;14.10;74.08;101140.77;106344;1259;66671;-85
2023/10/04 05:40:38;;;;;;;;;;;;;;;14.14;74.03;101143.99;106393;1263;71148;-85
2023/10/04 05:43:06;;;;;;;;;;;;;;;14.18;73.91;101145.12;106270;1259;124365;-85
2023/10/04 05:45:33;;;;;;;;;;;;;;;14.19;73.72;101141.45;106469;1260;61318;-84
2023/10/04 05:47:59;;;;;;;;;;;;;;;14.22;73.61;101140.77;106080;1266;124591;-84
2023/10/04 05:50:26;;;;;;;;;;;;;;;14.25;73.58;101148.77;106352;1258;64951;-84
2023/10/04 05:52:53;;;;;;;;;;;;;;;14.30;73.43;101156.61;106345;1259;72999;-84
2023/10/04 05:55:20;;;;;;;;;;;;;;;14.36;73.44;101156.53;106238;1259;125279;-84
2023/10/04 05:57:47;;;;;;;;;;;;;;;14.41;73.31;101157.67;106558;1259;61339;-84
2023/10/04 06:03:00;;;;;;;;;;;;;;;14.54;73.27;101170.25;106232;1263;63768;-84
2023/10/04 06:05:28;;;;;;;;;;;;;;;14.62;73.08;101174.45;106220;1259;125873;-84
2023/10/04 06:07:55;;;;;;;;;;;;;;;14.69;72.95;101181.80;106248;1265;61283;-83
2023/10/04 06:10:23;;;;;;;;;;;;;;;14.72;72.72;101183.98;106218;1260;61461;-86
2023/10/04 06:12:51;;;;;;;;;;;;;;;14.77;72.71;101181.20;106202;1260;125585;-83
2023/10/04 06:15:18;;;;;;;;;;;;;;;14.83;72.56;101181.11;106385;1259;66326;-84
2023/10/04 06:17:47;;;;;;;;;;;;;;;14.86;72.53;101182.40;106076;1259;126364;-84
2023/10/04 06:20:24;;;;;;;;;;;;;;;14.90;72.40;101184.05;106386;1259;61388;-86
2023/10/04 06:22:51;;;;;;;;;;;;;;;14.96;72.56;101184.66;106433;1259;61403;-86
2023/10/04 06:25:19;;;;;;;;;;;;;;;15.01;72.40;101185.60;106409;1263;125259;-86
2023/10/04 06:27:45;;;;;;;;;;;;;;;15.05;72.21;101196.80;106380;1259;66438;-84
2023/10/04 06:30:12;;;;;;;;;;;;;;;15.10;72.11;101196.69;106253;1264;124934;-82
2023/10/04 06:32:39;;;;;;;;;;;;;;;15.15;72.05;101192.52;106356;1260;61286;-81
2023/10/04 06:35:06;;;;;;;;;;;;;;;15.18;71.99;101190.25;106319;1260;61283;-82
2023/10/04 06:37:32;;;;;;;;;;;;;;;15.20;71.88;101187.09;106261;1262;74692;-82
2023/10/04 06:40:01;;;;;;;;;;;;;;;15.22;71.76;101186.59;106471;1259;66301;-82
2023/10/04 06:42:27;;;;;;;;;;;;;;;15.27;71.71;101193.38;106241;1261;124409;-82
2023/10/04 06:44:54;;;;;;;;;;;;;;;15.38;71.77;101198.12;106240;1260;61200;-82
2023/10/04 06:47:21;;;;;;;;;;;;;;;15.50;71.61;101196.14;106020;1259;124792;-82
2023/10/04 06:49:48;;;;;;;;;;;;;;;15.56;71.53;101190.55;106296;1263;74025;-83
2023/10/04 06:52:15;;;;;;;;;;;;;;;15.68;71.39;101198.12;106304;1259;63727;-82
2023/10/04 06:54:41;;;;;;;;;;;;;;;15.79;71.16;101195.43;106242;1263;125095;-82
2023/10/04 06:57:08;;;;;;;;;;;;;;;15.83;70.81;101192.30;106270;1261;61334;-83
2023/10/04 06:59:35;;;;;;;;;;;;;;;15.92;70.87;101201.59;106046;1259;125987;-82
2023/10/04 07:02:02;;;;;;;;;;;;;;;16.03;70.81;101195.67;106200;1259;59576;-82
2023/10/04 07:04:29;;;;;;;;;;;;;;;16.11;70.62;101200.55;106375;1263;66305;-83
2023/10/04 07:06:57;;;;;;;;;;;;;;;16.16;70.40;101205.89;106220;1259;125076;-83
2023/10/04 07:09:24;;;;;;;;;;;;;;;16.22;70.24;101210.38;106231;1259;61366;-83
2023/10/04 07:11:51;;;;;;;;;;;;;;;16.34;70.18;101213.14;106202;1263;125308;-83
2023/10/04 07:14:17;;;;;;;;;;;;;;;16.43;69.96;101209.50;106215;1260;74753;-83
2023/10/04 07:16:44;;;;;;;;;;;;;;;16.50;69.65;101218.06;106261;1263;66261;-82
2023/10/04 07:19:11;;;;;;;;;;;;;;;16.58;69.44;101216.17;106049;1260;124548;-83
2023/10/04 07:21:38;;;;;;;;;;;;;;;16.65;69.14;101223.32;106104;1259;61400;-83
2023/10/04 07:24:06;;;;;;;;;;;;;;;16.64;68.80;101227.55;106062;1258;125339;-82
2023/10/04 07:26:35;;;;;;;;;;;;;;;16.69;68.86;101229.52;106289;1259;73838;-82
2023/10/04 07:29:02;;;;;;;;;;;;;;;16.77;68.73;101230.48;106617;1263;66282;-82
2023/10/04 07:31:31;;;;;;;;;;;;;;;16.83;68.37;101238.17;106117;1259;124159;-81
2023/10/04 07:33:57;;;;;;;;;;;;;;;16.83;68.20;101240.67;106212;1260;61368;-81
2023/10/04 07:36:24;;;;;;;;;;;;;;;16.85;68.19;101250.43;106219;1263;124340;-80
2023/10/04 07:38:51;;;;;;;;;;;;;;;16.85;67.94;101250.27;106312;1263;74705;-80
2023/10/04 07:41:28;;;;;;;;;;;;;;;16.81;67.81;101256.58;106457;1259;124997;-81
2023/10/04 07:44:09;;;;;;;;;;;;;;;16.73;67.48;101261.83;108615;1263;72859;-81
2023/10/04 07:46:35;;;;;;;;;;;;;;;16.64;67.44;101265.66;108865;1258;59172;-79
2023/10/04 07:49:02;;;;;;;;;;;;;;;16.63;67.42;101271.13;108741;1259;124481;-79
2023/10/04 07:51:29;;;;;;;;;;;;;;;16.67;67.42;101272.77;107667;1259;73806;-79
2023/10/04 07:53:55;;;;;;;;;;;;;;;16.76;67.44;101269.48;106401;1259;125395;-80
2023/10/04 07:56:22;;;;;;;;;;;;;;;16.80;67.27;101268.08;106657;1259;71400;-80
2023/10/04 07:58:49;;;;;;;;;;;;;;;16.84;67.17;101266.20;106326;1259;61769;-80
2023/10/04 08:01:18;;;;;;;;;;;;;;;16.92;67.06;101267.84;106277;1259;125255;-80
2023/10/04 08:03:44;;;;;;;;;;;;;;;17.00;66.99;101265.08;106410;1259;74758;-80
2023/10/04 08:06:11;;;;;;;;;;;;;;;17.00;66.69;101267.55;106624;1259;125144;-80
2023/10/04 08:08:41;;;;;;;;;;;;;;;17.02;66.55;101271.65;106757;1259;72789;-80
2023/10/04 08:11:08;;;;;;;;;;;;;;;17.10;66.63;101272.95;106755;1259;61287;-80
2023/10/04 08:13:35;;;;;;;;;;;;;;;17.29;66.68;101272.52;106696;1259;61280;-81
2023/10/04 08:16:03;;;;;;;;;;;;;;;17.52;66.41;101272.48;106311;1259;74711;-82
2023/10/04 08:18:30;;;;;;;;;;;;;;;17.73;66.07;101275.21;106123;1260;124563;-81
2023/10/04 08:20:57;;;;;;;;;;;;;;;17.89;65.72;101277.79;106162;1263;71440;-82
2023/10/04 08:23:24;;;;;;;;;;;;;;;18.00;65.52;101276.41;106091;1259;124683;-82
2023/10/04 08:25:50;;;;;;;;;;;;;;;18.08;65.20;101281.76;106188;1263;61240;-81
2023/10/04 08:28:17;;;;;;;;;;;;;;;18.14;64.89;101286.04;106244;1264;74705;-82
2023/10/04 08:30:44;;;;;;;;;;;;;;;18.19;64.62;101292.08;106085;1259;125183;-80
2023/10/04 08:33:10;;;;;;;;;;;;;;;18.13;64.11;101293.30;106151;1259;72817;-82
2023/10/04 08:35:37;;;;;;;;;;;;;;;18.10;63.99;101290.11;106025;1261;125787;-82
2023/10/04 08:38:04;;;;;;;;;;;;;;;18.11;63.85;101288.69;106322;1264;61218;-81
2023/10/04 08:40:31;;;;;;;;;;;;;;;18.14;63.73;101289.77;106194;1259;74815;-80
2023/10/04 08:42:58;;;;;;;;;;;;;;;18.21;63.66;101287.64;106223;1263;124449;-80
2023/10/04 08:45:27;;;;;;;;;;;;;;;18.31;63.62;101286.95;106165;1259;72768;-80
2023/10/04 08:47:57;;;;;;;;;;;;;;;18.46;63.47;101284.67;106026;1265;126228;-80
2023/10/04 08:50:44;;;;;;;;;;;;;;;18.56;63.18;101289.12;106246;1261;61257;-80
2023/10/04 08:53:10;;;;;;;;;;;;;;;18.69;62.97;101293.39;106209;1259;125052;-80
2023/10/04 08:55:40;;;;;;;;;;;;;;;18.73;62.70;101291.79;106276;1262;66379;-80
2023/10/04 08:58:07;;;;;;;;;;;;;;;18.72;62.43;101302.27;106249;1260;71420;-80
2023/10/04 09:00:34;;;;;;;;;;;;;;;18.72;62.24;101308.86;106046;1260;124533;-83
2023/10/04 09:03:03;;;;;;;;;;;;;;;18.80;62.17;101313.14;106184;1259;61173;-80
2023/10/04 09:05:31;;;;;;;;;;;;;;;18.89;61.89;101313.34;106206;1264;124451;-80
2023/10/04 09:07:58;;;;;;;;;;;;;;;18.92;61.72;101312.80;106198;1262;65453;-80
2023/10/04 09:10:25;;;;;;;;;;;;;;;18.94;61.41;101317.95;106050;1265;71683;-80
2023/10/04 09:12:52;;;;;;;;;;;;;;;18.89;61.18;101317.60;106214;1260;124326;-81
2023/10/04 09:15:18;;;;;;;;;;;;;;;18.96;61.09;101317.06;106416;1262;59317;-80
2023/10/04 09:17:47;;;;;;;;;;;;;;;19.05;60.91;101321.34;106140;1262;124714;-81
2023/10/04 09:20:19;;;;;;;;;;;;;;;19.15;60.79;101321.14;106142;1260;64899;-82
2023/10/04 09:22:46;;;;;;;;;;;;;;;19.37;60.68;101317.38;106191;1259;72705;-82
2023/10/04 09:25:15;;;;;;;;;;;;;;;19.42;60.27;101326.07;106203;1264;125437;-82
2023/10/04 09:27:52;;;;;;;;;;;;;;;19.42;59.99;101326.26;106176;1259;61281;-79
2023/10/04 09:30:20;;;;;;;;;;;;;;;19.36;59.80;101328.39;106132;1261;124717;-81
2023/10/04 09:32:47;;;;;;;;;;;;;;;19.33;59.69;101328.77;106178;1260;64996;-81
2023/10/04 09:35:14;;;;;;;;;;;;;;;19.23;59.47;101323.80;106098;1259;124423;-80
2023/10/04 09:37:44;;;;;;;;;;;;;;;19.12;59.33;101326.48;106241;1262;61382;-81
2023/10/04 09:40:15;;;;;;;;;;;;;;;19.06;59.55;101326.14;106085;1259;59367;-81
2023/10/04 09:42:46;;;;;;;;;;;;;;;18.97;59.56;101328.63;106114;1260;124591;-81
2023/10/04 09:45:12;;;;;;;;;;;;;;;18.77;59.71;101340.17;106102;1263;66257;-81
2023/10/04 09:47:39;;;;;;;;;;;;;;;18.56;60.18;101347.06;106198;1262;124541;-81
2023/10/04 09:50:12;;;;;;;;;;;;;;;18.41;60.63;101358.75;106334;1261;61364;-82
2023/10/04 09:52:38;;;;;;;;;;;;;;;18.32;61.13;101368.88;106108;1260;61189;-80
2023/10/04 09:55:08;;;;;;;;;;;;;;;18.28;61.48;101366.71;106051;1262;124373;-82
2023/10/04 09:57:35;;;;;;;;;;;;;;;18.28;61.74;101361.73;106149;1265;66286;-80
2023/10/04 10:00:05;;;;;;;;;;;;;;;18.29;62.03;101361.04;106134;1259;124450;-81
2023/10/04 10:02:33;;;;;;;;;;;;;;;18.29;62.17;101360.70;106285;1261;59310;-80
2023/10/04 10:04:59;;;;;;;;;;;;;;;18.26;62.08;101361.38;106181;1264;61184;-79
2023/10/04 10:07:31;;;;;;;;;;;;;;;18.22;62.16;101367.23;106184;1262;124391;-80
2023/10/04 10:10:04;;;;;;;;;;;;;;;18.28;62.26;101372.05;106102;1262;66567;-81
2023/10/04 10:12:31;;;;;;;;;;;;;;;18.29;62.11;101373.65;106008;1265;124893;-80
2023/10/04 10:15:00;;;;;;;;;;;;;;;18.29;62.09;101379.87;106247;1261;61288;-78
2023/10/04 10:17:27;;;;;;;;;;;;;;;18.30;61.92;101377.40;106217;1259;124977;-81
2023/10/04 10:19:55;;;;;;;;;;;;;;;18.23;61.50;101386.26;106189;1262;73046;-80
2023/10/04 10:22:21;;;;;;;;;;;;;;;18.15;61.33;101393.50;106322;1261;66271;-80
2023/10/04 10:25:14;;;;;;;;;;;;;;;18.14;61.43;101398.64;106093;1261;124294;-79
2023/10/04 10:27:41;;;;;;;;;;;;;;;18.23;61.18;101400.28;106257;1261;61300;-81
2023/10/04 10:30:08;;;;;;;;;;;;;;;18.25;60.90;101405.61;106183;1265;124528;-80
2023/10/04 10:32:35;;;;;;;;;;;;;;;18.14;60.67;101405.23;106162;1262;73396;-80
2023/10/04 10:35:05;;;;;;;;;;;;;;;18.13;60.69;101408.95;106245;1262;64979;-80
2023/10/04 10:37:38;;;;;;;;;;;;;;;18.11;60.64;101409.11;106036;1259;124100;-81
2023/10/04 10:40:14;;;;;;;;;;;;;;;18.11;60.60;101407.15;106727;1260;61392;-80
2023/10/04 10:42:59;;;;;;;;;;;;;;;18.16;60.92;101399.91;106066;1259;124733;-80
2023/10/04 10:45:29;;;;;;;;;;;;;;;18.28;60.74;101396.39;106116;1260;73153;-80
2023/10/04 10:47:56;;;;;;;;;;;;;;;18.40;60.45;101395.90;106108;1262;125204;-80
2023/10/04 10:50:33;;;;;;;;;;;;;;;18.48;60.37;101389.53;106101;1260;71140;-80
2023/10/04 10:53:02;;;;;;;;;;;;;;;18.54;60.15;101397.35;106286;1259;61329;-82
2023/10/04 10:55:29;;;;;;;;;;;;;;;18.56;59.82;101403.23;106111;1262;124233;-82
2023/10/04 10:57:57;;;;;;;;;;;;;;;18.56;59.72;101398.42;106294;1261;74592;-80
2023/10/04 11:00:23;;;;;;;;;;;;;;;18.59;59.94;101401.63;106300;1263;124613;-82
2023/10/04 11:02:53;;;;;;;;;;;;;;;18.64;59.76;101402.36;106130;1262;73090;-80
2023/10/04 11:05:21;;;;;;;;;;;;;;;18.70;59.64;101403.08;106141;1263;125132;-82
2023/10/04 11:07:49;;;;;;;;;;;;;;;18.76;59.50;101402.20;106326;1260;61366;-82
2023/10/04 11:10:19;;;;;;;;;;;;;;;18.84;59.55;101399.39;106060;1260;73389;-82
2023/10/04 11:12:47;;;;;;;;;;;;;;;18.94;59.33;101398.52;106211;1262;125017;-83
2023/10/04 11:15:15;;;;;;;;;;;;;;;18.95;59.00;101398.16;106313;1260;72810;-83
2023/10/04 11:17:43;;;;;;;;;;;;;;;18.88;58.74;101400.30;106118;1259;124649;-82
2023/10/04 11:20:11;;;;;;;;;;;;;;;18.85;58.78;101398.50;106222;1264;59830;-83
2023/10/04 11:22:38;;;;;;;;;;;;;;;18.83;58.83;101398.34;106170;1262;74648;-82
2023/10/04 11:25:08;;;;;;;;;;;;;;;18.77;58.79;101396.52;106103;1264;124418;-82
2023/10/04 11:27:37;;;;;;;;;;;;;;;18.73;58.86;101396.52;106112;1265;71419;-83
2023/10/04 11:30:04;;;;;;;;;;;;;;;18.75;58.72;101405.75;106306;1262;125593;-81
2023/10/04 11:32:31;;;;;;;;;;;;;;;18.70;58.65;101402.55;106268;1260;61515;-83
2023/10/04 11:34:57;;;;;;;;;;;;;;;18.62;58.57;101411.25;106162;1260;72768;-83
2023/10/04 11:37:28;;;;;;;;;;;;;;;18.57;58.58;101416.92;106199;1261;125078;-82
2023/10/04 11:39:55;;;;;;;;;;;;;;;18.59;58.74;101421.36;106575;1259;71500;-82
2023/10/04 11:42:23;;;;;;;;;;;;;;;18.57;59.07;101427.94;106241;1263;124588;-81
2023/10/04 11:44:49;;;;;;;;;;;;;;;18.42;59.39;101442.11;106213;1259;61372;-82
2023/10/04 11:47:25;;;;;;;;;;;;;;;18.33;59.89;101439.92;106128;1265;124549;-82
2023/10/04 11:49:56;;;;;;;;;;;;;;;18.36;60.23;101444.20;106266;1259;66157;-81
2023/10/04 11:52:22;;;;;;;;;;;;;;;18.41;60.42;101440.86;106216;1261;72789;-79
2023/10/04 11:54:49;;;;;;;;;;;;;;;18.50;60.58;101443.38;106179;1264;124479;-82
2023/10/04 11:57:28;;;;;;;;;;;;;;;18.56;60.52;101435.76;106265;1260;61298;-82
2023/10/04 11:59:56;;;;;;;;;;;;;;;18.52;60.37;101435.38;106181;1260;124752;-82
2023/10/04 12:02:26;;;;;;;;;;;;;;;18.42;60.28;101433.05;106228;1259;64467;-79
2023/10/04 12:04:53;;;;;;;;;;;;;;;18.38;60.46;101437.48;105519;1265;72432;-79
2023/10/04 12:07:20;;;;;;;;;;;;;;;18.31;60.40;101441.17;105644;1265;125132;-82
2023/10/04 12:09:46;;;;;;;;;;;;;;;18.16;60.08;101438.80;106432;1261;61248;-82
2023/10/04 12:12:16;;;;;;;;;;;;;;;18.07;60.24;101442.13;106342;1259;124511;-82
2023/10/04 12:14:44;;;;;;;;;;;;;;;17.95;60.21;101442.25;106545;1263;66324;-82
2023/10/04 12:17:10;;;;;;;;;;;;;;;17.83;60.38;101445.70;106426;1260;124500;-82
2023/10/04 12:19:37;;;;;;;;;;;;;;;17.71;60.47;101448.98;106401;1259;60842;-82
2023/10/04 12:22:08;;;;;;;;;;;;;;;17.53;60.37;101447.78;106497;1262;59531;-82
2023/10/04 12:24:38;;;;;;;;;;;;;;;17.35;60.48;101446.06;106483;1259;124293;-82
2023/10/04 12:27:08;;;;;;;;;;;;;;;17.16;60.44;101442.16;106398;1260;66371;-82
2023/10/04 12:29:36;;;;;;;;;;;;;;;16.96;60.64;101449.08;106563;1265;124710;-82
2023/10/04 12:32:03;;;;;;;;;;;;;;;16.80;60.86;101451.19;108008;1260;59281;-82
2023/10/04 12:34:30;;;;;;;;;;;;;;;16.67;61.01;101445.89;106652;1260;60246;-82
2023/10/04 12:36:57;;;;;;;;;;;;;;;16.59;61.23;101444.23;106519;1260;124421;-82